Aplicació Alertes

Dades de l'estació automàtica Tarragona - Complex Educatiu

?
?
Resum diari 22:30 TU
Dades diàries de l'estació meteorològica
Temperatura mitjana 9.3 °C
Temperatura màxima 13.5 °C 12:22 TU
Temperatura mínima 3.3 °C 7:48 TU
Humitat relativa mitjana 49%
Precipitació acumulada 0.0 mm
Ratxa màxima del vent (10 m) 42.8 km/h - 292º 4:24 TU
Pressió atmosfèrica mitjana 1026.8 hPa
Irradiació solar global 9.5 MJ/m2

El tram horari està expressat en Temps Universal (TU). Cal sumar una hora en horari d'hivern i dues en horari d'estiu per passar a l'hora oficial.

Tarragona - Complex Educatiu

Metadades estació meteorol´gica
Municipi Tarragona
Comarca Tarragonès
Altitud 5 m
Data alta 05.02.2009
Estat actual Operativa
Dades de període
Període
TU
TM
°C
TX
°C
TN
°C
HRM
%
PPT
mm
VVM (10 m)
km/h
DVM (10 m)
graus
VVX (10 m)
km/h
PM
hPa
RS
W/m2
00:00 - 00:30 5.1 5.9 4.2 68 0.0 5.0 165 9.4 1023.6 0
00:30 - 01:00 6.3 6.9 5.8 62 0.0 6.1 262 16.2 1023.7 0
01:00 - 01:30 6.5 6.9 6.2 60 0.0 5.4 303 13.0 1024.0 0
01:30 - 02:00 6.4 6.6 6.2 61 0.0 7.6 305 15.8 1024.2 0
02:00 - 02:30 6.7 7.1 6.2 60 0.0 10.1 304 24.8 1024.3 0
02:30 - 03:00 7.2 7.3 7.1 58 0.0 14.8 296 27.4 1024.3 0
03:00 - 03:30 7.4 7.5 7.3 55 0.0 14.0 303 26.6 1024.4 0
03:30 - 04:00 7.1 7.3 6.8 57 0.0 15.8 294 31.7 1024.2 0
04:00 - 04:30 6.7 6.9 6.6 60 0.0 21.2 290 42.8 1024.3 0
04:30 - 05:00 6.4 6.6 6.2 60 0.0 14.0 296 29.5 1024.8 0
05:00 - 05:30 5.6 6.3 5.3 61 0.0 5.4 331 14.0 1025.3 0
05:30 - 06:00 5.7 6.1 5.3 60 0.0 11.9 307 23.0 1025.8 0
06:00 - 06:30 6.0 6.1 5.8 59 0.0 14.4 289 25.9 1026.0 0
06:30 - 07:00 5.7 6.1 5.2 60 0.0 9.7 310 25.6 1026.1 0
07:00 - 07:30 5.6 5.9 5.3 58 0.0 10.4 304 21.2 1026.4 3
07:30 - 08:00 4.0 5.4 3.3 63 0.0 6.1 53 10.8 1026.8 43
08:00 - 08:30 6.1 7.7 4.8 57 0.0 1.4 44 5.4 1027.2 131
08:30 - 09:00 8.5 9.4 7.1 49 0.0 3.6 52 10.1 1027.6 210
09:00 - 09:30 8.2 8.7 8.0 47 0.0 4.3 11 9.0 1028.2 285
09:30 - 10:00 8.7 9.2 8.0 44 0.0 4.3 352 9.0 1028.6 349
10:00 - 10:30 10.3 11.0 9.1 37 0.0 4.7 355 10.1 1028.7 403
10:30 - 11:00 11.1 11.7 10.6 41 0.0 4.0 247 9.4 1028.6 441
11:00 - 11:30 12.2 12.7 11.6 39 0.0 8.3 267 20.9 1028.2 467
11:30 - 12:00 12.8 13.1 12.2 36 0.0 11.9 293 24.8 1027.7 479
12:00 - 12:30 13.2 13.5 12.8 34 0.0 14.8 287 25.2 1027.3 473
12:30 - 13:00 12.8 13.4 12.4 35 0.0 20.5 286 33.8 1027.2 455
13:00 - 13:30 12.8 13.0 12.6 36 0.0 18.7 278 32.0 1026.7 423
13:30 - 14:00 12.8 12.9 12.6 35 0.0 20.2 276 32.8 1026.5 374
14:00 - 14:30 13.1 13.5 12.8 34 0.0 16.9 272 31.0 1026.5 313
14:30 - 15:00 12.9 13.3 12.7 33 0.0 22.0 286 39.6 1026.6 241
15:00 - 15:30 12.5 12.7 12.4 36 0.0 18.4 276 34.9 1027.0 161
15:30 - 16:00 12.0 12.4 11.8 37 0.0 17.3 274 31.0 1027.3 76
16:00 - 16:30 11.4 11.7 11.2 39 0.0 15.1 278 26.6 1027.5 9
16:30 - 17:00 11.3 11.4 11.2 37 0.0 17.6 288 32.0 1027.7 0
17:00 - 17:30 11.2 11.3 11.1 40 0.0 20.2 292 32.8 1027.7 0
17:30 - 18:00 11.0 11.1 10.9 43 0.0 16.6 289 26.6 1027.6 0
18:00 - 18:30 11.0 11.2 10.8 46 0.0 16.2 301 33.5 1027.8 0
18:30 - 19:00 10.9 11.0 10.7 48 0.0 17.3 296 30.2 1027.8 0
19:00 - 19:30 10.8 10.9 10.6 50 0.0 17.6 298 32.0 1028.0 0
19:30 - 20:00 10.8 10.9 10.6 51 0.0 22.3 296 39.6 1028.1 0
20:00 - 20:30 10.4 10.7 10.2 52 0.0 18.0 298 33.8 1028.4 0
20:30 - 21:00 10.2 10.3 10.1 51 0.0 18.7 299 33.8 1028.5 0
21:00 - 21:30 9.6 10.1 9.2 52 0.0 10.4 310 26.3 1028.5 0
21:30 - 22:00 9.6 9.9 9.1 51 0.0 6.5 267 13.3 1028.8 0
22:00 - 22:30 9.4 9.8 8.9 52 0.0 12.6 273 25.9 1029.0 0
22:30 - 23:00 9.8 9.9 9.7 51 0.0 15.5 285 25.2 1029.3 0

Les dades en taronja només han passat un control de qualitat automàtic. Resta pendent la seva validació definitiva.